sensor_id;sensor_type;location;lat;lon;timestamp;pressure;altitude;pressure_sealevel;temperature;humidity
78485;BME280;67773;50.806;8.776;2023-06-24T00:01:33;100509.16;;;14.46;79.46
78485;BME280;67773;50.806;8.776;2023-06-24T00:03:59;100509.47;;;14.39;78.82
78485;BME280;67773;50.806;8.776;2023-06-24T00:06:24;100520.78;;;14.44;79.28
78485;BME280;67773;50.806;8.776;2023-06-24T00:08:52;100510.00;;;14.46;79.66
78485;BME280;67773;50.806;8.776;2023-06-24T00:11:17;100510.63;;;14.34;79.39
78485;BME280;67773;50.806;8.776;2023-06-24T00:13:43;100520.38;;;14.35;80.04
78485;BME280;67773;50.806;8.776;2023-06-24T00:16:09;100524.16;;;14.31;80.31
78485;BME280;67773;50.806;8.776;2023-06-24T00:18:36;100524.47;;;14.25;80.02
78485;BME280;67773;50.806;8.776;2023-06-24T00:21:02;100518.34;;;14.23;80.61
78485;BME280;67773;50.806;8.776;2023-06-24T00:23:29;100523.00;;;14.19;80.36
78485;BME280;67773;50.806;8.776;2023-06-24T00:26:00;100519.53;;;14.17;80.43
78485;BME280;67773;50.806;8.776;2023-06-24T00:28:25;100524.88;;;14.17;80.66
78485;BME280;67773;50.806;8.776;2023-06-24T00:30:50;100529.50;;;14.13;81.02
78485;BME280;67773;50.806;8.776;2023-06-24T00:33:16;100525.28;;;14.09;81.17
78485;BME280;67773;50.806;8.776;2023-06-24T00:35:45;100523.00;;;14.02;81.11
78485;BME280;67773;50.806;8.776;2023-06-24T00:38:10;100527.72;;;13.97;80.88
78485;BME280;67773;50.806;8.776;2023-06-24T00:40:37;100524.16;;;13.96;81.05
78485;BME280;67773;50.806;8.776;2023-06-24T00:43:03;100521.59;;;13.95;81.30
78485;BME280;67773;50.806;8.776;2023-06-24T00:45:28;100524.25;;;13.95;81.33
78485;BME280;67773;50.806;8.776;2023-06-24T00:47:59;100525.97;;;13.96;81.34
78485;BME280;67773;50.806;8.776;2023-06-24T00:50:25;100522.63;;;13.92;81.60
78485;BME280;67773;50.806;8.776;2023-06-24T00:52:50;100524.03;;;13.99;80.86
78485;BME280;67773;50.806;8.776;2023-06-24T00:55:17;100533.00;;;13.98;80.73
78485;BME280;67773;50.806;8.776;2023-06-24T00:57:47;100529.03;;;14.05;81.00
78485;BME280;67773;50.806;8.776;2023-06-24T01:00:16;100527.88;;;13.94;81.39
78485;BME280;67773;50.806;8.776;2023-06-24T01:02:44;100541.47;;;13.89;81.33
78485;BME280;67773;50.806;8.776;2023-06-24T01:05:10;100546.22;;;13.82;82.15
78485;BME280;67773;50.806;8.776;2023-06-24T01:07:41;100538.56;;;13.76;82.72
78485;BME280;67773;50.806;8.776;2023-06-24T01:10:07;100538.94;;;13.69;82.74
78485;BME280;67773;50.806;8.776;2023-06-24T01:12:34;100527.78;;;13.61;82.96
78485;BME280;67773;50.806;8.776;2023-06-24T01:15:00;100530.53;;;13.59;82.76
78485;BME280;67773;50.806;8.776;2023-06-24T01:17:43;100525.19;;;13.59;83.01
78485;BME280;67773;50.806;8.776;2023-06-24T01:20:31;100526.63;;;13.66;83.29
78485;BME280;67773;50.806;8.776;2023-06-24T01:28:58;100532.16;;;13.62;83.46
78485;BME280;67773;50.806;8.776;2023-06-24T01:31:34;100522.34;;;13.62;83.20
78485;BME280;67773;50.806;8.776;2023-06-24T01:34:09;100526.50;;;13.50;83.38
78485;BME280;67773;50.806;8.776;2023-06-24T01:36:40;100525.63;;;13.50;83.48
78485;BME280;67773;50.806;8.776;2023-06-24T01:39:09;100531.22;;;13.45;84.28
78485;BME280;67773;50.806;8.776;2023-06-24T01:41:43;100531.34;;;13.42;84.06
78485;BME280;67773;50.806;8.776;2023-06-24T01:44:10;100529.13;;;13.33;83.79
78485;BME280;67773;50.806;8.776;2023-06-24T01:46:39;100524.53;;;13.37;84.08
78485;BME280;67773;50.806;8.776;2023-06-24T01:49:07;100530.72;;;13.37;83.83
78485;BME280;67773;50.806;8.776;2023-06-24T01:51:34;100522.72;;;13.37;83.82
78485;BME280;67773;50.806;8.776;2023-06-24T01:54:04;100523.88;;;13.32;83.33
78485;BME280;67773;50.806;8.776;2023-06-24T01:56:31;100522.22;;;13.29;83.71
78485;BME280;67773;50.806;8.776;2023-06-24T01:59:01;100535.47;;;13.31;84.25
78485;BME280;67773;50.806;8.776;2023-06-24T02:01:27;100526.69;;;13.28;83.75
78485;BME280;67773;50.806;8.776;2023-06-24T02:03:54;100526.84;;;13.25;83.46
78485;BME280;67773;50.806;8.776;2023-06-24T02:06:22;100530.22;;;13.29;84.24
78485;BME280;67773;50.806;8.776;2023-06-24T02:08:50;100540.19;;;13.25;83.81
78485;BME280;67773;50.806;8.776;2023-06-24T02:11:18;100523.72;;;13.16;83.78
78485;BME280;67773;50.806;8.776;2023-06-24T02:13:44;100529.06;;;13.16;84.48
78485;BME280;67773;50.806;8.776;2023-06-24T02:16:10;100528.28;;;13.14;83.99
78485;BME280;67773;50.806;8.776;2023-06-24T02:18:39;100533.59;;;13.14;84.02
78485;BME280;67773;50.806;8.776;2023-06-24T02:21:08;100524.94;;;13.09;84.43
78485;BME280;67773;50.806;8.776;2023-06-24T02:23:36;100522.78;;;13.17;84.36
78485;BME280;67773;50.806;8.776;2023-06-24T02:26:03;100519.47;;;13.12;84.34
78485;BME280;67773;50.806;8.776;2023-06-24T02:28:29;100532.78;;;13.12;84.81
78485;BME280;67773;50.806;8.776;2023-06-24T02:30:56;100540.72;;;13.13;84.63
78485;BME280;67773;50.806;8.776;2023-06-24T02:33:22;100532.06;;;13.08;84.39
78485;BME280;67773;50.806;8.776;2023-06-24T02:35:47;100537.47;;;13.07;84.92
78485;BME280;67773;50.806;8.776;2023-06-24T02:38:12;100532.16;;;13.07;84.30
78485;BME280;67773;50.806;8.776;2023-06-24T02:40:38;100534.16;;;13.01;84.75
78485;BME280;67773;50.806;8.776;2023-06-24T02:43:03;100544.09;;;12.98;85.30
78485;BME280;67773;50.806;8.776;2023-06-24T02:45:29;100543.09;;;13.00;85.11
78485;BME280;67773;50.806;8.776;2023-06-24T02:47:55;100537.06;;;12.97;85.21
78485;BME280;67773;50.806;8.776;2023-06-24T02:50:22;100531.00;;;12.93;85.07
78485;BME280;67773;50.806;8.776;2023-06-24T02:52:48;100538.78;;;12.98;85.14
78485;BME280;67773;50.806;8.776;2023-06-24T02:55:14;100530.19;;;12.91;85.35
78485;BME280;67773;50.806;8.776;2023-06-24T02:57:41;100541.72;;;12.92;85.65
78485;BME280;67773;50.806;8.776;2023-06-24T03:00:07;100537.47;;;12.88;85.63
78485;BME280;67773;50.806;8.776;2023-06-24T03:02:40;100530.50;;;12.85;85.59
78485;BME280;67773;50.806;8.776;2023-06-24T03:05:08;100533.59;;;12.76;85.13
78485;BME280;67773;50.806;8.776;2023-06-24T03:07:34;100541.44;;;12.79;85.98
78485;BME280;67773;50.806;8.776;2023-06-24T03:10:05;100544.84;;;12.83;85.52
78485;BME280;67773;50.806;8.776;2023-06-24T03:12:31;100548.56;;;12.79;85.84
78485;BME280;67773;50.806;8.776;2023-06-24T03:14:56;100543.31;;;12.77;85.87
78485;BME280;67773;50.806;8.776;2023-06-24T03:17:22;100549.34;;;12.81;85.58
78485;BME280;67773;50.806;8.776;2023-06-24T03:19:47;100547.69;;;12.78;85.33
78485;BME280;67773;50.806;8.776;2023-06-24T03:22:13;100546.13;;;12.74;85.88
78485;BME280;67773;50.806;8.776;2023-06-24T03:24:38;100544.38;;;12.73;85.36
78485;BME280;67773;50.806;8.776;2023-06-24T03:27:03;100540.00;;;12.72;86.09
78485;BME280;67773;50.806;8.776;2023-06-24T03:29:29;100543.72;;;12.68;85.54
78485;BME280;67773;50.806;8.776;2023-06-24T03:31:54;100548.84;;;12.73;86.13
78485;BME280;67773;50.806;8.776;2023-06-24T03:34:20;100553.16;;;12.75;85.97
78485;BME280;67773;50.806;8.776;2023-06-24T03:36:45;100545.38;;;12.70;86.26
78485;BME280;67773;50.806;8.776;2023-06-24T03:39:10;100549.13;;;12.66;86.02
78485;BME280;67773;50.806;8.776;2023-06-24T03:41:36;100546.69;;;12.62;86.10
78485;BME280;67773;50.806;8.776;2023-06-24T03:44:01;100539.41;;;12.65;86.37
78485;BME280;67773;50.806;8.776;2023-06-24T03:46:26;100544.47;;;12.71;86.06
78485;BME280;67773;50.806;8.776;2023-06-24T03:48:53;100544.50;;;12.70;86.39
78485;BME280;67773;50.806;8.776;2023-06-24T03:51:19;100542.72;;;12.70;86.44
78485;BME280;67773;50.806;8.776;2023-06-24T03:53:44;100546.25;;;12.71;86.28
78485;BME280;67773;50.806;8.776;2023-06-24T03:56:09;100540.50;;;12.80;86.78
78485;BME280;67773;50.806;8.776;2023-06-24T03:58:35;100549.41;;;12.79;86.67
78485;BME280;67773;50.806;8.776;2023-06-24T04:01:02;100551.03;;;12.83;86.47
78485;BME280;67773;50.806;8.776;2023-06-24T04:03:27;100546.84;;;12.78;85.51
78485;BME280;67773;50.806;8.776;2023-06-24T04:05:55;100550.22;;;12.81;86.06
78485;BME280;67773;50.806;8.776;2023-06-24T04:08:21;100553.03;;;12.78;86.35
78485;BME280;67773;50.806;8.776;2023-06-24T04:10:46;100553.09;;;12.77;85.51
78485;BME280;67773;50.806;8.776;2023-06-24T04:13:12;100564.34;;;12.83;86.40
78485;BME280;67773;50.806;8.776;2023-06-24T04:15:37;100562.81;;;12.78;86.55
78485;BME280;67773;50.806;8.776;2023-06-24T04:18:03;100555.75;;;12.77;86.25
78485;BME280;67773;50.806;8.776;2023-06-24T04:20:28;100563.59;;;12.80;86.86
78485;BME280;67773;50.806;8.776;2023-06-24T04:22:54;100562.81;;;12.78;86.99
78485;BME280;67773;50.806;8.776;2023-06-24T04:25:19;100561.53;;;12.86;87.13
78485;BME280;67773;50.806;8.776;2023-06-24T04:27:44;100570.16;;;12.91;86.82
78485;BME280;67773;50.806;8.776;2023-06-24T04:30:10;100570.91;;;12.95;86.17
78485;BME280;67773;50.806;8.776;2023-06-24T04:32:35;100569.75;;;13.00;86.02
78485;BME280;67773;50.806;8.776;2023-06-24T04:35:01;100559.09;;;13.00;86.42
78485;BME280;67773;50.806;8.776;2023-06-24T04:37:26;100558.81;;;13.07;85.87
78485;BME280;67773;50.806;8.776;2023-06-24T04:39:51;100560.53;;;13.08;86.18
78485;BME280;67773;50.806;8.776;2023-06-24T04:42:17;100553.31;;;13.10;86.05
78485;BME280;67773;50.806;8.776;2023-06-24T04:44:42;100562.91;;;13.14;85.59
78485;BME280;67773;50.806;8.776;2023-06-24T04:47:07;100569.03;;;13.16;85.63
78485;BME280;67773;50.806;8.776;2023-06-24T04:49:33;100573.50;;;13.15;85.37
78485;BME280;67773;50.806;8.776;2023-06-24T04:52:01;100571.50;;;13.20;85.81
78485;BME280;67773;50.806;8.776;2023-06-24T04:54:27;100581.97;;;13.25;84.91
78485;BME280;67773;50.806;8.776;2023-06-24T04:56:52;100570.22;;;13.29;85.40
78485;BME280;67773;50.806;8.776;2023-06-24T04:59:20;100580.72;;;13.32;85.76
78485;BME280;67773;50.806;8.776;2023-06-24T05:01:46;100573.53;;;13.34;86.01
78485;BME280;67773;50.806;8.776;2023-06-24T05:04:11;100579.50;;;13.39;85.32
78485;BME280;67773;50.806;8.776;2023-06-24T05:06:36;100586.34;;;13.45;85.13
78485;BME280;67773;50.806;8.776;2023-06-24T05:09:01;100585.53;;;13.43;84.51
78485;BME280;67773;50.806;8.776;2023-06-24T05:11:27;100574.50;;;13.50;84.86
78485;BME280;67773;50.806;8.776;2023-06-24T05:13:52;100577.66;;;13.58;84.98
78485;BME280;67773;50.806;8.776;2023-06-24T05:16:17;100578.25;;;13.65;85.37
78485;BME280;67773;50.806;8.776;2023-06-24T05:18:44;100574.47;;;13.69;85.34
78485;BME280;67773;50.806;8.776;2023-06-24T05:21:10;100583.97;;;13.75;84.75
78485;BME280;67773;50.806;8.776;2023-06-24T05:23:35;100582.97;;;13.77;84.58
78485;BME280;67773;50.806;8.776;2023-06-24T05:26:00;100578.25;;;13.82;84.26
78485;BME280;67773;50.806;8.776;2023-06-24T05:28:25;100577.09;;;13.88;83.38
78485;BME280;67773;50.806;8.776;2023-06-24T05:30:51;100576.69;;;13.96;84.32
78485;BME280;67773;50.806;8.776;2023-06-24T05:33:16;100579.63;;;14.08;83.98
78485;BME280;67773;50.806;8.776;2023-06-24T05:35:43;100576.63;;;14.14;83.02
78485;BME280;67773;50.806;8.776;2023-06-24T05:38:08;100584.34;;;14.21;83.41
78485;BME280;67773;50.806;8.776;2023-06-24T05:40:33;100584.25;;;14.22;82.49
78485;BME280;67773;50.806;8.776;2023-06-24T05:42:59;100575.00;;;14.29;82.36
78485;BME280;67773;50.806;8.776;2023-06-24T05:45:26;100567.38;;;14.39;82.67
78485;BME280;67773;50.806;8.776;2023-06-24T05:47:51;100580.31;;;14.47;81.50
78485;BME280;67773;50.806;8.776;2023-06-24T05:50:16;100587.78;;;14.57;82.06
78485;BME280;67773;50.806;8.776;2023-06-24T05:52:42;100584.63;;;14.66;82.01
78485;BME280;67773;50.806;8.776;2023-06-24T05:55:07;100590.34;;;14.76;81.08
78485;BME280;67773;50.806;8.776;2023-06-24T05:57:33;100584.97;;;14.93;80.79
78485;BME280;67773;50.806;8.776;2023-06-24T05:59:58;100590.81;;;15.00;80.54
78485;BME280;67773;50.806;8.776;2023-06-24T06:02:24;100590.31;;;15.09;80.93
78485;BME280;67773;50.806;8.776;2023-06-24T06:04:50;100581.78;;;15.18;80.54
78485;BME280;67773;50.806;8.776;2023-06-24T06:07:15;100587.41;;;15.29;80.77
78485;BME280;67773;50.806;8.776;2023-06-24T06:09:40;100580.59;;;15.40;78.18
78485;BME280;67773;50.806;8.776;2023-06-24T06:12:06;100589.03;;;15.48;78.00
78485;BME280;67773;50.806;8.776;2023-06-24T06:14:32;100584.03;;;15.57;76.98
78485;BME280;67773;50.806;8.776;2023-06-24T06:16:57;100588.28;;;15.62;76.90
78485;BME280;67773;50.806;8.776;2023-06-24T06:19:22;100578.09;;;15.68;77.07
78485;BME280;67773;50.806;8.776;2023-06-24T06:21:49;100585.41;;;15.80;75.53
78485;BME280;67773;50.806;8.776;2023-06-24T06:24:14;100582.97;;;15.92;75.54
78485;BME280;67773;50.806;8.776;2023-06-24T06:26:43;100577.28;;;15.98;77.57
78485;BME280;67773;50.806;8.776;2023-06-24T06:29:09;100582.25;;;16.04;77.16
78485;BME280;67773;50.806;8.776;2023-06-24T06:31:34;100567.56;;;16.11;76.05
78485;BME280;67773;50.806;8.776;2023-06-24T06:33:59;100571.31;;;16.23;76.24
78485;BME280;67773;50.806;8.776;2023-06-24T06:36:25;100562.06;;;16.28;76.74
78485;BME280;67773;50.806;8.776;2023-06-24T06:38:50;100575.84;;;16.36;77.36
78485;BME280;67773;50.806;8.776;2023-06-24T06:41:16;100574.34;;;16.47;72.27
78485;BME280;67773;50.806;8.776;2023-06-24T06:43:42;100568.13;;;16.60;72.59
78485;BME280;67773;50.806;8.776;2023-06-24T06:46:08;100568.25;;;16.73;72.05
78485;BME280;67773;50.806;8.776;2023-06-24T06:48:33;100570.88;;;16.89;71.43
78485;BME280;67773;50.806;8.776;2023-06-24T06:50:58;100566.44;;;17.02;70.18
78485;BME280;67773;50.806;8.776;2023-06-24T06:53:23;100565.16;;;17.08;71.10
78485;BME280;67773;50.806;8.776;2023-06-24T06:55:49;100560.38;;;17.13;71.85
78485;BME280;67773;50.806;8.776;2023-06-24T06:58:14;100556.44;;;17.18;70.87
78485;BME280;67773;50.806;8.776;2023-06-24T07:00:39;100559.28;;;17.29;70.31
78485;BME280;67773;50.806;8.776;2023-06-24T07:03:05;100566.16;;;17.48;69.34
78485;BME280;67773;50.806;8.776;2023-06-24T07:05:30;100547.22;;;17.64;68.62
78485;BME280;67773;50.806;8.776;2023-06-24T07:07:55;100549.59;;;17.68;68.55
78485;BME280;67773;50.806;8.776;2023-06-24T07:10:20;100556.53;;;17.72;68.70
78485;BME280;67773;50.806;8.776;2023-06-24T07:12:46;100558.06;;;17.89;67.61
78485;BME280;67773;50.806;8.776;2023-06-24T07:15:11;100554.03;;;18.09;67.31
78485;BME280;67773;50.806;8.776;2023-06-24T07:17:37;100555.53;;;18.13;66.84
78485;BME280;67773;50.806;8.776;2023-06-24T07:20:02;100553.88;;;18.25;66.82
78485;BME280;67773;50.806;8.776;2023-06-24T07:22:28;100557.31;;;18.39;66.78
78485;BME280;67773;50.806;8.776;2023-06-24T07:24:55;100553.53;;;18.42;66.97
78485;BME280;67773;50.806;8.776;2023-06-24T07:27:21;100556.28;;;18.67;66.57
78485;BME280;67773;50.806;8.776;2023-06-24T07:29:46;100557.78;;;18.71;65.01
78485;BME280;67773;50.806;8.776;2023-06-24T07:32:12;100555.94;;;18.85;64.97
78485;BME280;67773;50.806;8.776;2023-06-24T07:34:37;100564.63;;;19.01;64.80
78485;BME280;67773;50.806;8.776;2023-06-24T07:37:03;100560.34;;;18.98;65.35
78485;BME280;67773;50.806;8.776;2023-06-24T07:39:28;100548.22;;;19.17;62.91
78485;BME280;67773;50.806;8.776;2023-06-24T07:41:53;100555.75;;;19.24;64.28
78485;BME280;67773;50.806;8.776;2023-06-24T07:44:19;100560.41;;;19.46;60.97
78485;BME280;67773;50.806;8.776;2023-06-24T07:46:44;100559.22;;;19.63;60.62
78485;BME280;67773;50.806;8.776;2023-06-24T07:49:10;100552.09;;;19.86;60.42
78485;BME280;67773;50.806;8.776;2023-06-24T07:51:35;100556.19;;;19.92;60.50
78485;BME280;67773;50.806;8.776;2023-06-24T07:54:00;100547.63;;;20.09;58.21
78485;BME280;67773;50.806;8.776;2023-06-24T07:56:26;100539.56;;;20.09;56.95
78485;BME280;67773;50.806;8.776;2023-06-24T07:58:51;100544.16;;;20.31;57.04
78485;BME280;67773;50.806;8.776;2023-06-24T08:01:17;100543.25;;;20.43;55.73
78485;BME280;67773;50.806;8.776;2023-06-24T08:03:42;100540.56;;;20.43;56.74
78485;BME280;67773;50.806;8.776;2023-06-24T08:06:07;100538.47;;;20.58;55.68
78485;BME280;67773;50.806;8.776;2023-06-24T08:08:32;100534.06;;;20.68;55.16
78485;BME280;67773;50.806;8.776;2023-06-24T08:10:58;100535.31;;;20.86;54.29
78485;BME280;67773;50.806;8.776;2023-06-24T08:13:23;100533.34;;;20.88;54.63
78485;BME280;67773;50.806;8.776;2023-06-24T08:15:48;100534.56;;;21.07;53.05
78485;BME280;67773;50.806;8.776;2023-06-24T08:18:14;100519.59;;;21.02;52.35
78485;BME280;67773;50.806;8.776;2023-06-24T08:20:39;100527.19;;;21.20;52.17
78485;BME280;67773;50.806;8.776;2023-06-24T08:23:04;100531.72;;;21.30;51.87
78485;BME280;67773;50.806;8.776;2023-06-24T08:25:30;100526.03;;;21.45;51.83
78485;BME280;67773;50.806;8.776;2023-06-24T08:27:55;100523.66;;;21.63;52.31
78485;BME280;67773;50.806;8.776;2023-06-24T08:30:21;100515.06;;;21.69;52.05
78485;BME280;67773;50.806;8.776;2023-06-24T08:32:46;100520.53;;;21.78;52.79
78485;BME280;67773;50.806;8.776;2023-06-24T08:35:11;100526.06;;;21.77;52.22
78485;BME280;67773;50.806;8.776;2023-06-24T08:37:37;100526.31;;;21.74;52.67
78485;BME280;67773;50.806;8.776;2023-06-24T08:40:03;100521.41;;;21.79;52.66
78485;BME280;67773;50.806;8.776;2023-06-24T08:42:32;100524.66;;;21.94;51.82
78485;BME280;67773;50.806;8.776;2023-06-24T08:44:57;100516.50;;;22.26;50.63
78485;BME280;67773;50.806;8.776;2023-06-24T08:47:27;100511.31;;;22.34;51.08
78485;BME280;67773;50.806;8.776;2023-06-24T08:49:56;100519.00;;;22.38;50.91
78485;BME280;67773;50.806;8.776;2023-06-24T08:52:30;100519.06;;;22.48;52.17
78485;BME280;67773;50.806;8.776;2023-06-24T08:54:58;100523.50;;;22.80;50.95
78485;BME280;67773;50.806;8.776;2023-06-24T08:57:24;100524.59;;;22.67;50.96
78485;BME280;67773;50.806;8.776;2023-06-24T08:59:49;100520.06;;;22.77;49.91
78485;BME280;67773;50.806;8.776;2023-06-24T09:02:15;100523.31;;;23.02;50.51
78485;BME280;67773;50.806;8.776;2023-06-24T09:04:40;100511.84;;;23.19;50.57
78485;BME280;67773;50.806;8.776;2023-06-24T09:07:06;100511.19;;;23.37;48.95
78485;BME280;67773;50.806;8.776;2023-06-24T09:09:31;100515.28;;;23.31;48.21
78485;BME280;67773;50.806;8.776;2023-06-24T09:12:01;100510.31;;;23.26;49.19
78485;BME280;67773;50.806;8.776;2023-06-24T09:14:28;100510.31;;;23.26;48.03
78485;BME280;67773;50.806;8.776;2023-06-24T09:16:56;100501.63;;;23.42;47.44
78485;BME280;67773;50.806;8.776;2023-06-24T09:19:26;100494.69;;;23.59;45.82
78485;BME280;67773;50.806;8.776;2023-06-24T09:22:05;100496.97;;;23.93;45.64
78485;BME280;67773;50.806;8.776;2023-06-24T09:24:31;100493.63;;;24.37;41.32
78485;BME280;67773;50.806;8.776;2023-06-24T09:26:57;100492.34;;;24.51;39.73
78485;BME280;67773;50.806;8.776;2023-06-24T09:29:26;100491.34;;;24.80;42.09
78485;BME280;67773;50.806;8.776;2023-06-24T09:31:53;100484.47;;;25.22;40.97
78485;BME280;67773;50.806;8.776;2023-06-24T09:34:21;100481.75;;;25.58;40.08
78485;BME280;67773;50.806;8.776;2023-06-24T09:36:54;100481.31;;;25.98;39.01
78485;BME280;67773;50.806;8.776;2023-06-24T09:39:20;100477.31;;;26.10;39.93
78485;BME280;67773;50.806;8.776;2023-06-24T09:41:59;100477.88;;;26.66;39.20
78485;BME280;67773;50.806;8.776;2023-06-24T09:44:26;100472.16;;;27.19;37.50
78485;BME280;67773;50.806;8.776;2023-06-24T09:46:51;100464.13;;;27.76;37.17
78485;BME280;67773;50.806;8.776;2023-06-24T09:49:18;100467.78;;;29.43;33.32
78485;BME280;67773;50.806;8.776;2023-06-24T09:51:46;100457.59;;;32.87;27.13
78485;BME280;67773;50.806;8.776;2023-06-24T09:54:14;100439.78;;;35.41;24.26
78485;BME280;67773;50.806;8.776;2023-06-24T09:56:43;100444.06;;;37.65;21.53
78485;BME280;67773;50.806;8.776;2023-06-24T09:59:11;100450.88;;;37.02;21.16
78485;BME280;67773;50.806;8.776;2023-06-24T10:01:39;100440.03;;;36.64;21.99
78485;BME280;67773;50.806;8.776;2023-06-24T10:04:06;100433.66;;;36.63;22.04
78485;BME280;67773;50.806;8.776;2023-06-24T10:06:33;100437.66;;;38.06;20.73
78485;BME280;67773;50.806;8.776;2023-06-24T10:08:59;100423.34;;;38.96;20.59
78485;BME280;67773;50.806;8.776;2023-06-24T10:11:24;100421.09;;;40.12;18.96
78485;BME280;67773;50.806;8.776;2023-06-24T10:13:51;100417.72;;;39.93;19.62
78485;BME280;67773;50.806;8.776;2023-06-24T10:16:16;100423.47;;;40.98;20.14
78485;BME280;67773;50.806;8.776;2023-06-24T10:18:44;100424.41;;;39.07;18.97
78485;BME280;67773;50.806;8.776;2023-06-24T10:21:10;100422.97;;;36.49;21.96
78485;BME280;67773;50.806;8.776;2023-06-24T10:26:29;100416.22;;;37.71;19.88
78485;BME280;67773;50.806;8.776;2023-06-24T10:34:24;100412.31;;;37.37;20.59
78485;BME280;67773;50.806;8.776;2023-06-24T10:44:50;100393.84;;;40.70;18.79
78485;BME280;67773;50.806;8.776;2023-06-24T10:47:16;100393.81;;;41.67;17.79
78485;BME280;67773;50.806;8.776;2023-06-24T10:49:41;100379.28;;;41.97;16.82
78485;BME280;67773;50.806;8.776;2023-06-24T10:52:08;100390.63;;;42.18;17.00
78485;BME280;67773;50.806;8.776;2023-06-24T10:54:35;100389.91;;;37.92;20.06
78485;BME280;67773;50.806;8.776;2023-06-24T10:57:00;100396.84;;;34.35;23.45
78485;BME280;67773;50.806;8.776;2023-06-24T10:59:25;100384.91;;;35.51;21.98
78485;BME280;67773;50.806;8.776;2023-06-24T11:01:54;100385.34;;;38.33;19.33
78485;BME280;67773;50.806;8.776;2023-06-24T11:04:19;100378.53;;;40.72;16.85
78485;BME280;67773;50.806;8.776;2023-06-24T11:07:00;100376.97;;;42.21;16.31
78485;BME280;67773;50.806;8.776;2023-06-24T11:09:26;100367.31;;;41.65;18.26
78485;BME280;67773;50.806;8.776;2023-06-24T11:11:52;100360.78;;;41.81;19.76
78485;BME280;67773;50.806;8.776;2023-06-24T11:14:19;100357.94;;;41.44;18.77
78485;BME280;67773;50.806;8.776;2023-06-24T11:16:47;100362.19;;;40.98;19.16
78485;BME280;67773;50.806;8.776;2023-06-24T11:19:13;100357.50;;;38.28;19.76
78485;BME280;67773;50.806;8.776;2023-06-24T11:21:38;100348.41;;;41.13;16.96
78485;BME280;67773;50.806;8.776;2023-06-24T11:24:04;100338.13;;;37.51;21.45
78485;BME280;67773;50.806;8.776;2023-06-24T11:26:30;100351.53;;;33.72;25.83
78485;BME280;67773;50.806;8.776;2023-06-24T11:28:55;100358.63;;;30.68;29.94
78485;BME280;67773;50.806;8.776;2023-06-24T11:31:27;100353.66;;;30.93;29.26
78485;BME280;67773;50.806;8.776;2023-06-24T11:33:52;100330.69;;;35.25;23.43
78485;BME280;67773;50.806;8.776;2023-06-24T11:36:18;100344.38;;;37.76;21.89
78485;BME280;67773;50.806;8.776;2023-06-24T11:38:47;100338.09;;;38.04;19.82
78485;BME280;67773;50.806;8.776;2023-06-24T11:41:13;100329.13;;;38.89;17.62
78485;BME280;67773;50.806;8.776;2023-06-24T11:43:47;100334.16;;;35.95;21.54
78485;BME280;67773;50.806;8.776;2023-06-24T11:46:26;100325.81;;;32.98;24.65
78485;BME280;67773;50.806;8.776;2023-06-24T11:48:52;100327.75;;;34.82;25.45
78485;BME280;67773;50.806;8.776;2023-06-24T11:51:17;100327.53;;;37.06;20.50
78485;BME280;67773;50.806;8.776;2023-06-24T11:53:43;100330.72;;;34.29;23.40
78485;BME280;67773;50.806;8.776;2023-06-24T11:56:10;100323.13;;;33.31;24.62
78485;BME280;67773;50.806;8.776;2023-06-24T11:58:36;100324.44;;;31.92;26.49
78485;BME280;67773;50.806;8.776;2023-06-24T12:01:02;100320.00;;;30.04;30.15
78485;BME280;67773;50.806;8.776;2023-06-24T12:03:29;100312.16;;;29.71;32.11
78485;BME280;67773;50.806;8.776;2023-06-24T12:05:54;100309.31;;;29.42;30.97
78485;BME280;67773;50.806;8.776;2023-06-24T12:08:20;100319.66;;;29.31;34.92
78485;BME280;67773;50.806;8.776;2023-06-24T12:10:45;100310.78;;;28.75;36.14
78485;BME280;67773;50.806;8.776;2023-06-24T12:13:11;100319.47;;;28.01;33.43
78485;BME280;67773;50.806;8.776;2023-06-24T12:15:36;100314.59;;;27.15;35.81
78485;BME280;67773;50.806;8.776;2023-06-24T12:18:02;100318.09;;;26.91;36.56
78485;BME280;67773;50.806;8.776;2023-06-24T12:20:29;100317.47;;;26.38;37.81
78485;BME280;67773;50.806;8.776;2023-06-24T12:22:55;100312.31;;;26.01;36.74
78485;BME280;67773;50.806;8.776;2023-06-24T12:25:21;100313.56;;;25.81;37.55
78485;BME280;67773;50.806;8.776;2023-06-24T12:27:46;100319.50;;;25.84;37.64
78485;BME280;67773;50.806;8.776;2023-06-24T12:30:13;100312.53;;;26.42;36.66
78485;BME280;67773;50.806;8.776;2023-06-24T12:32:39;100308.91;;;26.92;40.61
78485;BME280;67773;50.806;8.776;2023-06-24T12:35:04;100302.81;;;27.47;36.73
78485;BME280;67773;50.806;8.776;2023-06-24T12:37:31;100297.56;;;28.25;34.71
78485;BME280;67773;50.806;8.776;2023-06-24T12:39:57;100307.06;;;28.45;33.64
78485;BME280;67773;50.806;8.776;2023-06-24T12:42:23;100299.81;;;28.53;35.88
78485;BME280;67773;50.806;8.776;2023-06-24T12:44:48;100298.16;;;28.43;40.74
78485;BME280;67773;50.806;8.776;2023-06-24T12:47:13;100296.75;;;28.08;35.34
78485;BME280;67773;50.806;8.776;2023-06-24T12:49:38;100298.56;;;28.24;33.46
78485;BME280;67773;50.806;8.776;2023-06-24T12:52:04;100304.19;;;27.67;35.09
78485;BME280;67773;50.806;8.776;2023-06-24T12:54:29;100299.91;;;27.48;33.56
78485;BME280;67773;50.806;8.776;2023-06-24T12:56:54;100282.88;;;30.82;29.17
78485;BME280;67773;50.806;8.776;2023-06-24T12:59:20;100282.19;;;30.58;32.39
78485;BME280;67773;50.806;8.776;2023-06-24T13:01:45;100286.94;;;29.38;29.34
78485;BME280;67773;50.806;8.776;2023-06-24T13:04:11;100277.03;;;32.59;26.64
78485;BME280;67773;50.806;8.776;2023-06-24T13:06:36;100268.38;;;35.85;25.08
78485;BME280;67773;50.806;8.776;2023-06-24T13:09:02;100274.44;;;38.09;20.81